createdAt,value
2023-04-13T00:01:32.918Z,51.17
2023-04-13T00:04:03.730Z,51.23
2023-04-13T00:06:30.705Z,51.05
2023-04-13T00:08:58.737Z,51.20
2023-04-13T00:11:27.823Z,50.73
2023-04-13T00:13:55.290Z,51.32
2023-04-13T00:16:23.280Z,51.22
2023-04-13T00:18:50.528Z,51.16
2023-04-13T00:21:17.270Z,51.25
2023-04-13T00:23:44.825Z,51.02
2023-04-13T00:26:11.381Z,51.15
2023-04-13T00:28:37.955Z,51.22
2023-04-13T00:31:04.834Z,51.15
2023-04-13T00:33:31.535Z,50.91
2023-04-13T00:35:58.130Z,51.26
2023-04-13T00:38:27.220Z,51.26
2023-04-13T00:40:54.875Z,51.21
2023-04-13T00:43:21.699Z,51.29
2023-04-13T00:45:48.693Z,51.26
2023-04-13T00:48:16.009Z,51.34
2023-04-13T00:50:42.572Z,50.91
2023-04-13T00:53:11.233Z,51.44
2023-04-13T00:55:39.521Z,51.26
2023-04-13T00:58:06.146Z,51.41
2023-04-13T01:00:32.799Z,51.07
2023-04-13T01:03:01.785Z,51.49
2023-04-13T01:05:29.533Z,51.30
2023-04-13T01:07:59.342Z,51.17
2023-04-13T01:10:47.723Z,51.25
2023-04-13T01:13:31.236Z,51.19
2023-04-13T01:16:31.069Z,51.17
2023-04-13T01:18:57.625Z,51.40
2023-04-13T01:21:26.324Z,51.13
2023-04-13T01:24:11.100Z,51.11
2023-04-13T01:27:07.090Z,51.55
2023-04-13T01:29:33.602Z,51.25
2023-04-13T01:32:00.425Z,51.35
2023-04-13T01:34:26.970Z,51.29
2023-04-13T01:36:53.479Z,51.07
2023-04-13T01:39:20.481Z,51.13
2023-04-13T01:41:46.996Z,51.38
2023-04-13T01:44:13.726Z,51.12
2023-04-13T01:46:46.440Z,51.54
2023-04-13T01:49:16.115Z,51.17
2023-04-13T01:51:42.741Z,51.20
2023-04-13T01:54:13.778Z,51.09
2023-04-13T01:56:40.749Z,51.52
2023-04-13T01:59:07.351Z,50.98
2023-04-13T02:01:33.897Z,51.13
2023-04-13T02:04:01.859Z,51.17
2023-04-13T02:06:28.730Z,51.07
2023-04-13T02:08:55.295Z,50.84
2023-04-13T02:11:22.095Z,51.47
2023-04-13T02:13:48.695Z,51.41
2023-04-13T02:16:15.814Z,51.01
2023-04-13T02:18:42.400Z,51.54
2023-04-13T02:21:12.139Z,51.23
2023-04-13T02:23:40.489Z,51.07
2023-04-13T02:26:10.925Z,51.12
2023-04-13T02:28:37.437Z,50.72
2023-04-13T02:31:04.225Z,51.02
2023-04-13T02:33:31.718Z,50.98
2023-04-13T02:36:04.566Z,51.08
2023-04-13T02:38:31.931Z,51.06
2023-04-13T02:41:01.981Z,51.11
2023-04-13T02:43:31.552Z,51.02
2023-04-13T02:45:58.334Z,51.12
2023-04-13T02:48:25.717Z,51.02
2023-04-13T02:50:53.388Z,51.12
2023-04-13T02:53:20.094Z,51.69
2023-04-13T02:55:50.394Z,51.23
2023-04-13T02:58:17.091Z,51.02
2023-04-13T03:00:44.641Z,51.00
2023-04-13T03:03:11.388Z,50.73
2023-04-13T03:05:38.962Z,51.23
2023-04-13T03:08:05.749Z,50.98
2023-04-13T03:10:32.471Z,51.51
2023-04-13T03:12:59.069Z,51.09
2023-04-13T03:15:25.638Z,50.90
2023-04-13T03:17:53.019Z,51.31
2023-04-13T03:20:20.822Z,51.18
2023-04-13T03:22:47.377Z,51.20
2023-04-13T03:25:13.870Z,50.90
2023-04-13T03:27:40.604Z,50.91
2023-04-13T03:30:07.873Z,51.09
2023-04-13T03:32:34.647Z,50.95
2023-04-13T03:35:01.292Z,50.81
2023-04-13T03:37:30.311Z,50.43
2023-04-13T03:39:58.385Z,50.95
2023-04-13T03:42:24.972Z,50.94
2023-04-13T03:44:51.518Z,50.92
2023-04-13T03:47:18.088Z,50.99
2023-04-13T03:49:44.644Z,51.19
2023-04-13T03:52:11.175Z,51.19
2023-04-13T03:54:38.158Z,51.23
2023-04-13T03:57:05.042Z,51.09
2023-04-13T03:59:31.601Z,50.80
2023-04-13T04:01:58.528Z,50.69
2023-04-13T04:04:25.461Z,51.03
2023-04-13T04:06:52.131Z,50.90
2023-04-13T04:09:18.653Z,51.01
2023-04-13T04:11:45.514Z,51.03
2023-04-13T04:14:12.085Z,50.74
2023-04-13T04:16:38.641Z,50.46
2023-04-13T04:19:05.247Z,51.10
2023-04-13T04:21:34.394Z,50.96
2023-04-13T04:24:06.160Z,50.92
2023-04-13T04:26:32.783Z,50.57
2023-04-13T04:29:07.130Z,51.08
2023-04-13T04:31:36.842Z,51.37
2023-04-13T04:34:04.033Z,50.72
2023-04-13T04:36:30.926Z,50.69
2023-04-13T04:39:02.360Z,51.07
2023-04-13T04:41:31.097Z,50.96
2023-04-13T04:44:02.704Z,50.95
2023-04-13T04:46:29.771Z,50.83
2023-04-13T04:49:00.662Z,50.92
2023-04-13T04:51:28.020Z,51.20
2023-04-13T04:53:54.782Z,50.94
2023-04-13T04:56:21.510Z,51.02
2023-04-13T04:58:48.002Z,51.50
2023-04-13T05:01:14.555Z,50.77
2023-04-13T05:03:41.159Z,50.87
2023-04-13T05:06:08.257Z,50.74
2023-04-13T05:08:34.891Z,50.66
2023-04-13T05:11:01.513Z,50.63
2023-04-13T05:13:28.124Z,50.07
2023-04-13T05:15:54.708Z,49.73
2023-04-13T05:18:21.743Z,49.91
2023-04-13T05:20:48.268Z,49.28
2023-04-13T05:23:14.849Z,48.77
2023-04-13T05:25:41.407Z,48.59
2023-04-13T05:28:07.948Z,48.73
2023-04-13T05:30:35.292Z,48.16
2023-04-13T05:33:05.633Z,48.29
2023-04-13T05:35:32.331Z,48.58
2023-04-13T05:38:01.225Z,48.22
2023-04-13T05:40:29.299Z,48.62
2023-04-13T05:42:56.482Z,48.74
2023-04-13T05:45:23.110Z,48.64
2023-04-13T05:47:50.252Z,48.12
2023-04-13T05:50:17.009Z,48.76
2023-04-13T05:52:43.588Z,48.51
2023-04-13T05:55:10.267Z,48.65
2023-04-13T05:57:36.801Z,48.66
2023-04-13T06:00:05.316Z,48.85
2023-04-13T06:02:32.690Z,49.01
2023-04-13T06:04:59.566Z,49.27
2023-04-13T06:07:28.099Z,49.09
2023-04-13T06:09:54.636Z,48.89
2023-04-13T06:12:21.220Z,49.33
2023-04-13T06:14:48.613Z,48.81
2023-04-13T06:17:15.291Z,48.73
2023-04-13T06:19:41.871Z,48.54
2023-04-13T06:22:08.455Z,48.30
2023-04-13T06:24:35.042Z,48.56
2023-04-13T06:27:01.529Z,48.26
2023-04-13T06:29:28.092Z,49.21
2023-04-13T06:31:54.581Z,48.86
2023-04-13T06:34:21.110Z,49.08
2023-04-13T06:36:48.514Z,48.90
2023-04-13T06:39:15.798Z,48.90
2023-04-13T06:41:42.367Z,48.88
2023-04-13T06:44:08.881Z,49.33
2023-04-13T06:46:35.520Z,49.16
2023-04-13T06:49:02.175Z,49.23
2023-04-13T06:51:28.822Z,49.36
2023-04-13T06:53:55.443Z,48.86
2023-04-13T06:56:21.996Z,49.47
2023-04-13T06:58:48.605Z,49.40
2023-04-13T07:01:16.284Z,49.25
2023-04-13T07:03:43.737Z,49.44
2023-04-13T07:06:10.608Z,49.44
2023-04-13T07:08:37.214Z,49.40
2023-04-13T07:11:03.809Z,49.41
2023-04-13T07:13:30.330Z,49.40
2023-04-13T07:15:57.074Z,49.47
2023-04-13T07:18:25.097Z,49.33
2023-04-13T07:20:52.880Z,49.55
2023-04-13T07:23:19.443Z,49.56
2023-04-13T07:25:45.970Z,49.42
2023-04-13T07:28:12.488Z,49.54
2023-04-13T07:30:43.536Z,49.58
2023-04-13T07:33:10.198Z,49.52
2023-04-13T07:35:37.537Z,49.41
2023-04-13T07:38:04.262Z,49.66
2023-04-13T07:40:31.110Z,50.04
2023-04-13T07:42:57.824Z,49.65
2023-04-13T07:45:24.419Z,49.74
2023-04-13T07:47:53.433Z,49.78
2023-04-13T07:50:20.069Z,49.70
2023-04-13T07:52:46.774Z,49.53
2023-04-13T07:55:13.569Z,48.99
2023-04-13T07:57:40.559Z,49.22
2023-04-13T08:00:08.321Z,49.12
2023-04-13T08:02:35.068Z,48.86
2023-04-13T08:05:01.880Z,49.18
2023-04-13T08:07:29.639Z,49.25
2023-04-13T08:09:56.327Z,49.06
2023-04-13T08:12:23.129Z,48.74
2023-04-13T08:14:49.710Z,49.34
2023-04-13T08:17:16.261Z,49.05
2023-04-13T08:19:42.847Z,49.66
2023-04-13T08:22:10.526Z,49.33
2023-04-13T08:24:37.152Z,49.46
2023-04-13T08:27:04.111Z,49.40
2023-04-13T08:29:30.716Z,49.40
2023-04-13T08:31:58.155Z,49.47
2023-04-13T08:34:24.753Z,49.58
2023-04-13T08:36:51.345Z,49.48
2023-04-13T08:39:17.941Z,49.65
2023-04-13T08:41:45.335Z,49.56
2023-04-13T08:44:12.396Z,49.57
2023-04-13T08:46:40.210Z,49.64
2023-04-13T08:49:08.343Z,49.50
2023-04-13T08:51:35.041Z,49.87
2023-04-13T08:54:01.547Z,49.55
2023-04-13T08:56:42.199Z,49.60
2023-04-13T08:59:12.908Z,49.49
2023-04-13T09:01:39.624Z,49.66
2023-04-13T09:04:10.850Z,49.60
2023-04-13T09:06:41.173Z,49.65
2023-04-13T09:09:14.335Z,49.76
2023-04-13T09:11:42.176Z,49.65
2023-04-13T09:14:10.041Z,49.64
2023-04-13T09:16:43.287Z,49.59
2023-04-13T09:19:10.175Z,49.63
2023-04-13T09:21:38.142Z,49.64
2023-04-13T09:24:05.167Z,49.54
2023-04-13T09:26:44.982Z,49.60
2023-04-13T09:29:16.779Z,49.77
2023-04-13T09:31:45.356Z,49.82
2023-04-13T09:34:12.701Z,49.74
2023-04-13T09:36:49.492Z,50.03
2023-04-13T09:39:29.365Z,49.92
2023-04-13T09:41:56.083Z,49.83
2023-04-13T09:44:28.326Z,49.69
2023-04-13T09:46:59.243Z,49.89
2023-04-13T09:49:26.299Z,49.82
2023-04-13T09:51:55.686Z,49.76
2023-04-13T09:54:22.880Z,49.74
2023-04-13T09:56:52.763Z,49.81
2023-04-13T09:59:19.645Z,49.63
2023-04-13T10:01:46.747Z,49.70
2023-04-13T10:04:13.384Z,49.85
2023-04-13T10:06:40.530Z,50.05
2023-04-13T10:09:07.745Z,49.96
2023-04-13T10:11:38.690Z,49.93
2023-04-13T10:14:09.215Z,50.04
2023-04-13T10:16:57.816Z,49.94
2023-04-13T10:19:25.053Z,50.12
2023-04-13T10:21:52.004Z,50.15
2023-04-13T10:24:19.401Z,50.12
2023-04-13T10:26:45.998Z,49.88
2023-04-13T10:29:14.799Z,49.99
2023-04-13T10:31:47.209Z,50.38
2023-04-13T10:34:30.409Z,50.12
2023-04-13T10:37:03.856Z,50.32
2023-04-13T10:39:32.156Z,50.10
2023-04-13T10:42:05.935Z,50.25
2023-04-13T10:44:42.727Z,50.26
2023-04-13T10:47:09.521Z,50.24
2023-04-13T10:49:36.520Z,50.40
2023-04-13T10:52:03.597Z,50.31
2023-04-13T10:54:30.258Z,50.21
2023-04-13T10:57:01.595Z,50.18
2023-04-13T10:59:57.352Z,50.27
2023-04-13T11:02:26.209Z,50.28
2023-04-13T11:04:53.332Z,50.02
2023-04-13T11:07:23.374Z,50.27
2023-04-13T11:09:53.093Z,50.18
2023-04-13T11:12:19.748Z,50.14
2023-04-13T11:14:49.178Z,50.32
2023-04-13T11:17:17.636Z,50.33
2023-04-13T11:19:52.616Z,50.34
2023-04-13T11:22:22.798Z,50.25
2023-04-13T11:24:50.113Z,50.15
2023-04-13T11:27:26.949Z,50.10
2023-04-13T11:30:00.545Z,50.34
2023-04-13T11:32:27.985Z,50.16
2023-04-13T11:35:10.924Z,50.37
2023-04-13T11:37:41.886Z,50.37
2023-04-13T11:40:17.330Z,50.15
2023-04-13T11:42:48.023Z,50.23
2023-04-13T11:45:16.252Z,50.15
2023-04-13T11:47:46.087Z,50.14
2023-04-13T11:50:14.800Z,50.20
2023-04-13T11:52:42.429Z,50.26
2023-04-13T11:55:21.537Z,50.34
2023-04-13T11:57:49.886Z,50.25
2023-04-13T12:00:18.898Z,50.16
2023-04-13T12:03:00.439Z,50.30
2023-04-13T12:05:31.262Z,50.25
2023-04-13T12:07:58.987Z,50.17
2023-04-13T12:10:39.356Z,50.33
2023-04-13T12:16:02.253Z,48.96
2023-04-13T12:21:01.391Z,47.49
2023-04-13T12:23:28.407Z,47.28
2023-04-13T12:26:32.039Z,47.97
2023-04-13T12:28:55.015Z,48.31
2023-04-13T12:31:21.559Z,48.45
2023-04-13T12:33:48.106Z,48.96
2023-04-13T12:36:14.710Z,48.83
2023-04-13T12:38:41.327Z,49.71
2023-04-13T12:41:09.402Z,49.19
2023-04-13T12:43:36.221Z,49.22
2023-04-13T12:46:02.817Z,49.40
2023-04-13T12:48:30.828Z,49.49
2023-04-13T12:50:57.487Z,48.86
2023-04-13T12:53:24.114Z,48.86
2023-04-13T12:55:50.861Z,49.02
2023-04-13T12:58:17.357Z,49.01
2023-04-13T13:00:43.896Z,49.59
2023-04-13T13:03:14.382Z,49.28
2023-04-13T13:05:41.953Z,49.62
2023-04-13T13:08:09.225Z,49.61
2023-04-13T13:10:37.002Z,49.68
2023-04-13T13:13:04.095Z,49.25
2023-04-13T13:15:31.781Z,49.68
2023-04-13T13:18:00.902Z,49.53
2023-04-13T13:20:27.556Z,49.67
2023-04-13T13:22:54.143Z,49.17
2023-04-13T13:25:20.809Z,49.46
2023-04-13T13:30:16.855Z,49.75
2023-04-13T13:32:43.431Z,49.38
2023-04-13T13:35:10.669Z,50.43
2023-04-13T13:37:37.208Z,49.84
2023-04-13T13:40:21.776Z,49.79
2023-04-13T13:42:52.200Z,49.20
2023-04-13T13:45:19.101Z,49.96
2023-04-13T13:47:49.896Z,49.55
2023-04-13T13:50:16.588Z,49.65
2023-04-13T13:52:51.872Z,49.38
2023-04-13T13:55:26.229Z,50.13
2023-04-13T13:57:52.860Z,49.30
2023-04-13T14:00:19.942Z,49.77
2023-04-13T14:02:46.822Z,49.71
2023-04-13T14:05:13.763Z,49.49
2023-04-13T14:07:42.095Z,49.89
2023-04-13T14:10:10.186Z,49.78
2023-04-13T14:12:38.619Z,49.90
2023-04-13T14:15:09.225Z,49.79
2023-04-13T14:17:36.924Z,49.90
2023-04-13T14:20:10.338Z,49.90
2023-04-13T14:22:37.048Z,49.84
2023-04-13T14:25:04.195Z,49.83
2023-04-13T14:27:30.701Z,49.62
2023-04-13T14:29:57.300Z,49.87
2023-04-13T14:32:23.849Z,49.78
2023-04-13T14:34:50.392Z,49.45
2023-04-13T14:37:16.974Z,49.97
2023-04-13T14:39:43.604Z,49.90
2023-04-13T14:42:11.817Z,49.96
2023-04-13T14:44:38.439Z,50.03
2023-04-13T14:47:08.805Z,50.30
2023-04-13T14:49:36.170Z,49.84
2023-04-13T14:52:03.564Z,50.05
2023-04-13T14:54:30.079Z,49.99
2023-04-13T14:56:57.097Z,49.88
2023-04-13T14:59:24.099Z,50.01
2023-04-13T15:01:51.228Z,50.13
2023-04-13T15:04:18.707Z,49.79
2023-04-13T15:06:47.663Z,49.75
2023-04-13T15:09:15.535Z,50.01
2023-04-13T15:11:42.949Z,49.98
2023-04-13T15:14:09.542Z,49.89
2023-04-13T15:16:36.453Z,50.58
2023-04-13T15:19:03.343Z,50.06
2023-04-13T15:21:30.252Z,50.31
2023-04-13T15:23:56.820Z,50.18
2023-04-13T15:26:24.029Z,50.22
2023-04-13T15:28:50.737Z,50.06
2023-04-13T15:31:17.255Z,50.39
2023-04-13T15:33:44.064Z,50.10
2023-04-13T15:36:15.823Z,49.89
2023-04-13T15:38:42.838Z,50.04
2023-04-13T15:41:10.529Z,49.98
2023-04-13T15:43:37.156Z,50.10
2023-04-13T15:46:03.736Z,49.94
2023-04-13T15:48:30.731Z,49.92
2023-04-13T15:51:00.212Z,49.97
2023-04-13T15:53:27.491Z,50.05
2023-04-13T15:55:54.175Z,49.92
2023-04-13T15:58:20.761Z,49.95
2023-04-13T16:00:47.513Z,49.96
2023-04-13T16:03:14.203Z,50.23
2023-04-13T16:05:40.915Z,49.84
2023-04-13T16:08:08.029Z,50.34
2023-04-13T16:10:34.661Z,49.94
2023-04-13T16:13:02.854Z,50.06
2023-04-13T16:15:29.586Z,50.12
2023-04-13T16:17:57.060Z,49.87
2023-04-13T16:20:28.266Z,49.89
2023-04-13T16:22:59.219Z,49.80
2023-04-13T16:25:25.851Z,50.02
2023-04-13T16:27:54.162Z,49.90
2023-04-13T16:30:21.953Z,49.98
2023-04-13T16:32:48.850Z,49.83
2023-04-13T16:35:15.531Z,50.16
2023-04-13T16:37:45.293Z,49.92
2023-04-13T16:40:12.258Z,49.73
2023-04-13T16:42:39.466Z,50.09
2023-04-13T16:45:07.455Z,50.10
2023-04-13T16:47:34.181Z,49.95
2023-04-13T16:50:00.984Z,50.01
2023-04-13T16:52:27.580Z,50.03
2023-04-13T16:54:54.208Z,50.00
2023-04-13T16:57:21.180Z,50.07
2023-04-13T16:59:48.182Z,49.88
2023-04-13T17:02:30.324Z,49.85
2023-04-13T17:04:57.905Z,49.89
2023-04-13T17:07:26.823Z,49.88
2023-04-13T17:09:53.437Z,49.71
2023-04-13T17:12:21.583Z,49.99
2023-04-13T17:14:49.785Z,50.01
2023-04-13T17:17:16.459Z,49.97
2023-04-13T17:19:43.038Z,49.87
2023-04-13T17:22:09.693Z,49.92
2023-04-13T17:24:36.668Z,49.69
2023-04-13T17:27:03.187Z,50.12
2023-04-13T17:29:29.807Z,50.04
2023-04-13T17:31:56.567Z,50.06
2023-04-13T17:34:23.159Z,50.14
2023-04-13T17:36:49.693Z,50.29
2023-04-13T17:39:16.356Z,50.31
2023-04-13T17:41:43.214Z,50.03
2023-04-13T17:44:09.768Z,50.19
2023-04-13T17:46:36.628Z,49.98
2023-04-13T17:49:03.293Z,50.12
2023-04-13T17:51:30.814Z,49.94
2023-04-13T17:53:57.428Z,50.03
2023-04-13T17:56:24.034Z,49.98
2023-04-13T17:58:50.596Z,50.10
2023-04-13T18:01:17.222Z,50.10
2023-04-13T18:03:44.270Z,49.96
2023-04-13T18:06:10.953Z,50.05
2023-04-13T18:08:37.508Z,50.19
2023-04-13T18:11:04.175Z,50.07
2023-04-13T18:13:31.512Z,49.70
2023-04-13T18:15:58.210Z,49.53
2023-04-13T18:18:25.100Z,50.00
2023-04-13T18:20:52.248Z,49.97
2023-04-13T18:23:19.479Z,50.09
2023-04-13T18:25:49.575Z,49.96
2023-04-13T18:28:16.507Z,50.02
2023-04-13T18:30:43.764Z,50.23
2023-04-13T18:33:11.413Z,49.93
2023-04-13T18:35:45.744Z,49.95
2023-04-13T18:38:12.381Z,50.05
2023-04-13T18:40:39.846Z,49.59
2023-04-13T18:43:06.381Z,50.11
2023-04-13T18:45:33.078Z,49.84
2023-04-13T18:47:59.690Z,49.87
2023-04-13T18:50:29.399Z,50.07
2023-04-13T18:52:56.249Z,49.93
2023-04-13T18:55:24.834Z,49.60
2023-04-13T18:57:51.772Z,50.04
2023-04-13T19:00:18.646Z,50.04
2023-04-13T19:02:51.054Z,50.00
2023-04-13T19:05:18.811Z,49.98
2023-04-13T19:07:57.199Z,50.01
2023-04-13T19:10:24.412Z,49.96
2023-04-13T19:12:51.065Z,49.76
2023-04-13T19:15:18.134Z,50.09
2023-04-13T19:17:44.805Z,50.55
2023-04-13T19:20:11.763Z,50.26
2023-04-13T19:22:38.358Z,50.18
2023-04-13T19:25:07.079Z,50.41
2023-04-13T19:27:33.608Z,50.03
2023-04-13T19:30:01.563Z,50.19
2023-04-13T19:32:30.353Z,50.51
2023-04-13T19:34:57.007Z,50.74
2023-04-13T19:37:23.577Z,50.51
2023-04-13T19:39:50.099Z,50.64
2023-04-13T19:42:16.856Z,50.35
2023-04-13T19:44:43.410Z,50.44
2023-04-13T19:47:09.916Z,50.25
2023-04-13T19:49:36.464Z,50.30
2023-04-13T19:52:03.890Z,50.50
2023-04-13T19:54:30.595Z,50.42
2023-04-13T19:56:57.293Z,50.50
2023-04-13T19:59:23.870Z,50.18
2023-04-13T20:01:50.516Z,50.96
2023-04-13T20:04:18.095Z,50.38
2023-04-13T20:06:44.771Z,50.44
2023-04-13T20:09:12.475Z,50.51
2023-04-13T20:11:41.084Z,50.60
2023-04-13T20:14:08.016Z,50.55
2023-04-13T20:16:35.525Z,50.71
2023-04-13T20:19:02.137Z,50.94
2023-04-13T20:21:31.162Z,50.83
2023-04-13T20:23:58.249Z,51.03
2023-04-13T20:26:27.900Z,50.84
2023-04-13T20:28:54.765Z,50.86
2023-04-13T20:31:21.794Z,50.81
2023-04-13T20:33:49.150Z,50.74
2023-04-13T20:36:21.256Z,50.73
2023-04-13T20:38:48.206Z,50.64
2023-04-13T20:41:14.752Z,50.61
2023-04-13T20:43:42.087Z,50.70
2023-04-13T20:46:09.901Z,50.83
2023-04-13T20:51:08.683Z,50.88
2023-04-13T20:53:37.169Z,51.10
2023-04-13T20:56:07.622Z,50.96
2023-04-13T20:58:34.205Z,51.12
2023-04-13T21:01:01.401Z,51.16
2023-04-13T21:03:30.614Z,51.35
2023-04-13T21:05:57.981Z,51.33
2023-04-13T21:08:24.680Z,50.82
2023-04-13T21:10:51.484Z,51.35
2023-04-13T21:13:17.999Z,51.42
2023-04-13T21:15:44.611Z,51.35
2023-04-13T21:18:11.307Z,51.50
2023-04-13T21:20:42.597Z,51.37
2023-04-13T21:23:09.138Z,50.98
2023-04-13T21:25:36.468Z,51.45
2023-04-13T21:28:03.129Z,51.53
2023-04-13T21:30:29.708Z,51.10
2023-04-13T21:32:56.361Z,51.37
2023-04-13T21:35:22.975Z,51.56
2023-04-13T21:37:49.542Z,51.44
2023-04-13T21:40:18.044Z,51.50
2023-04-13T21:42:44.549Z,51.72
2023-04-13T21:45:11.439Z,51.52
2023-04-13T21:47:38.008Z,51.87
2023-04-13T21:50:05.106Z,51.57
2023-04-13T21:52:31.717Z,51.45
2023-04-13T21:54:59.855Z,51.55
2023-04-13T21:57:26.628Z,51.38
2023-04-13T21:59:54.503Z,51.48
2023-04-13T22:02:21.355Z,51.52
2023-04-13T22:04:47.999Z,51.57
2023-04-13T22:07:14.584Z,51.99
2023-04-13T22:09:41.183Z,51.24
2023-04-13T22:12:10.228Z,51.31
2023-04-13T22:14:36.733Z,51.03
2023-04-13T22:17:03.756Z,51.30
2023-04-13T22:19:30.296Z,51.62
2023-04-13T22:21:56.842Z,51.42
2023-04-13T22:24:23.370Z,51.14
2023-04-13T22:26:49.991Z,51.53
2023-04-13T22:29:16.516Z,51.33
2023-04-13T22:31:43.093Z,51.25
2023-04-13T22:34:09.671Z,51.50
2023-04-13T22:36:36.210Z,50.95
2023-04-13T22:39:02.874Z,51.08
2023-04-13T22:41:29.599Z,51.08
2023-04-13T22:43:56.416Z,51.18
2023-04-13T22:46:23.960Z,51.27
2023-04-13T22:48:50.579Z,51.24
2023-04-13T22:51:17.205Z,51.23
2023-04-13T22:53:43.777Z,51.14
2023-04-13T22:56:10.418Z,51.26
2023-04-13T22:58:37.000Z,51.54
2023-04-13T23:01:03.568Z,51.17
2023-04-13T23:03:30.186Z,51.29
2023-04-13T23:05:56.813Z,51.67
2023-04-13T23:08:23.345Z,51.11
2023-04-13T23:10:49.894Z,51.35
2023-04-13T23:13:16.747Z,51.18
2023-04-13T23:15:43.289Z,51.38
2023-04-13T23:18:09.810Z,51.62
2023-04-13T23:20:36.300Z,51.65
2023-04-13T23:23:02.874Z,51.29
2023-04-13T23:25:29.456Z,51.89
2023-04-13T23:27:55.965Z,51.89
2023-04-13T23:30:22.478Z,51.29
2023-04-13T23:32:49.056Z,50.78
2023-04-13T23:35:15.822Z,51.74
2023-04-13T23:37:43.500Z,51.04
2023-04-13T23:40:10.784Z,51.23
2023-04-13T23:42:37.300Z,51.62
2023-04-13T23:45:04.283Z,51.22
2023-04-13T23:47:31.413Z,51.29
2023-04-13T23:49:58.022Z,51.34
2023-04-13T23:52:24.550Z,51.40
2023-04-13T23:54:51.326Z,50.98
2023-04-13T23:57:17.945Z,51.33
2023-04-13T23:59:44.519Z,50.72
